createdAt,value
2018-04-19T00:02:02.930Z,96.50
2018-04-19T00:04:29.126Z,96.40
2018-04-19T00:06:55.299Z,96.10
2018-04-19T00:09:21.469Z,96.40
2018-04-19T00:11:47.666Z,96.60
2018-04-19T00:14:13.838Z,96.80
2018-04-19T00:16:40.802Z,97.20
2018-04-19T00:19:06.991Z,97.20
2018-04-19T00:21:33.161Z,97.30
2018-04-19T00:23:59.337Z,97.20
2018-04-19T00:26:25.536Z,97.40
2018-04-19T00:28:51.930Z,97.80
2018-04-19T00:31:18.850Z,98.10
2018-04-19T00:33:45.022Z,98.10
2018-04-19T00:36:11.936Z,97.60
2018-04-19T00:38:38.321Z,97.60
2018-04-19T00:41:04.531Z,96.60
2018-04-19T00:43:31.440Z,95.70
2018-04-19T00:45:57.618Z,95.60
2018-04-19T00:48:24.538Z,95.70
2018-04-19T00:50:50.724Z,95.70
2018-04-19T00:53:16.922Z,96.10
2018-04-19T00:55:43.093Z,96.40
2018-04-19T00:58:09.280Z,96.80
2018-04-19T01:00:35.474Z,96.80
2018-04-19T01:03:01.641Z,97.30
2018-04-19T01:05:27.866Z,97.00
2018-04-19T01:07:54.033Z,97.20
2018-04-19T01:10:20.985Z,97.20
2018-04-19T01:12:47.906Z,97.50
2018-04-19T01:15:14.093Z,97.20
2018-04-19T01:17:40.322Z,97.50
2018-04-19T01:20:06.507Z,98.00
2018-04-19T01:22:32.685Z,98.30
2018-04-19T01:24:58.895Z,98.70
2018-04-19T01:27:25.821Z,99.70
2018-04-19T01:29:52.041Z,99.70
2018-04-19T01:32:18.209Z,99.90
2018-04-19T01:34:45.135Z,99.80
2018-04-19T01:37:11.325Z,99.70
2018-04-19T01:39:37.513Z,99.70
2018-04-19T01:42:03.717Z,99.40
2018-04-19T01:44:29.880Z,99.20
2018-04-19T01:46:56.793Z,99.10
2018-04-19T01:49:23.005Z,99.00
2018-04-19T01:51:49.185Z,98.90
2018-04-19T01:54:16.166Z,98.00
2018-04-19T01:56:43.069Z,97.30
2018-04-19T01:59:09.266Z,97.30
2018-04-19T02:01:35.454Z,96.80
2018-04-19T02:04:01.648Z,96.80
2018-04-19T02:06:27.833Z,96.90
2018-04-19T02:08:54.753Z,96.50
2018-04-19T02:11:20.921Z,96.40
2018-04-19T02:13:47.871Z,96.10
2018-04-19T02:16:14.794Z,95.70
2018-04-19T02:18:41.000Z,95.70
2018-04-19T02:21:07.179Z,95.60
2018-04-19T02:23:34.085Z,95.50
2018-04-19T02:26:00.271Z,95.50
2018-04-19T02:28:27.189Z,95.40
2018-04-19T02:30:53.655Z,95.40
2018-04-19T02:33:20.573Z,95.70
2018-04-19T02:35:46.817Z,95.70
2018-04-19T02:38:12.966Z,95.20
2018-04-19T02:40:39.892Z,94.90
2018-04-19T02:43:06.104Z,94.90
2018-04-19T02:45:32.295Z,95.00
2018-04-19T02:47:58.465Z,95.30
2018-04-19T02:50:24.647Z,95.60
2018-04-19T02:52:51.559Z,95.80
2018-04-19T02:55:17.778Z,95.40
2018-04-19T02:57:43.962Z,95.40
2018-04-19T03:00:10.880Z,95.70
2018-04-19T03:02:37.073Z,95.60
2018-04-19T03:05:03.253Z,95.80
2018-04-19T03:07:29.458Z,95.90
2018-04-19T03:09:56.431Z,95.70
2018-04-19T03:12:22.625Z,95.70
2018-04-19T03:14:48.829Z,95.50
2018-04-19T03:17:15.746Z,95.10
2018-04-19T03:19:41.917Z,95.00
2018-04-19T03:22:08.874Z,94.60
2018-04-19T03:24:35.067Z,94.60
2018-04-19T03:27:01.255Z,94.60
2018-04-19T03:29:27.454Z,94.70
2018-04-19T03:31:54.382Z,94.60
2018-04-19T03:34:20.550Z,94.50
2018-04-19T03:36:47.535Z,94.50
2018-04-19T03:39:13.738Z,94.50
2018-04-19T03:41:40.073Z,94.40
2018-04-19T03:44:06.303Z,94.40
2018-04-19T03:46:32.487Z,94.40
2018-04-19T03:48:58.660Z,94.60
2018-04-19T03:51:25.593Z,94.50
2018-04-19T03:53:51.956Z,94.50
2018-04-19T03:56:18.382Z,94.40
2018-04-19T03:58:45.310Z,93.90
2018-04-19T04:01:12.263Z,93.50
2018-04-19T04:03:38.489Z,93.50
2018-04-19T04:06:04.668Z,93.70
2018-04-19T04:08:30.861Z,93.60
2018-04-19T04:10:57.041Z,93.60
2018-04-19T04:13:23.224Z,93.60
2018-04-19T04:15:49.403Z,93.80
2018-04-19T04:18:28.098Z,93.90
2018-04-19T04:21:07.454Z,94.00
2018-04-19T04:23:46.787Z,94.00
2018-04-19T04:26:13.765Z,94.20
2018-04-19T04:28:39.958Z,94.20
2018-04-19T04:31:06.148Z,94.80
2018-04-19T04:33:32.358Z,95.10
2018-04-19T04:35:58.545Z,95.40
2018-04-19T04:38:25.518Z,95.70
2018-04-19T04:40:51.697Z,95.70
2018-04-19T04:43:18.297Z,95.80
2018-04-19T04:45:44.486Z,96.00
2018-04-19T04:48:10.662Z,96.00
2018-04-19T04:50:36.876Z,96.00
2018-04-19T04:53:03.809Z,95.90
2018-04-19T04:55:30.709Z,95.40
2018-04-19T04:57:56.894Z,95.70
2018-04-19T05:00:23.831Z,94.60
2018-04-19T05:02:50.028Z,94.60
2018-04-19T05:05:16.235Z,94.40
2018-04-19T05:07:43.310Z,94.30
2018-04-19T05:10:09.506Z,94.30
2018-04-19T05:12:36.422Z,94.50
2018-04-19T05:15:02.639Z,94.50
2018-04-19T05:17:28.814Z,94.50
2018-04-19T05:19:55.719Z,94.80
2018-04-19T05:22:21.900Z,94.70
2018-04-19T05:24:48.816Z,94.20
2018-04-19T05:27:15.005Z,94.20
2018-04-19T05:29:41.200Z,94.40
2018-04-19T05:32:08.113Z,94.50
2018-04-19T05:34:34.291Z,94.50
2018-04-19T05:37:01.206Z,94.00
2018-04-19T05:39:27.678Z,94.00
2018-04-19T05:41:54.585Z,93.50
2018-04-19T05:44:20.993Z,94.00
2018-04-19T05:46:47.181Z,94.20
2018-04-19T05:49:13.371Z,94.50
2018-04-19T05:51:39.566Z,95.20
2018-04-19T05:54:06.493Z,94.60
2018-04-19T05:56:32.670Z,94.60
2018-04-19T05:58:58.881Z,94.60
2018-04-19T06:01:25.793Z,94.20
2018-04-19T06:03:52.007Z,94.10
2018-04-19T06:06:18.209Z,93.90
2018-04-19T06:08:44.416Z,93.40
2018-04-19T06:11:10.643Z,93.30
2018-04-19T06:13:36.831Z,92.40
2018-04-19T06:16:03.037Z,92.60
2018-04-19T06:18:29.963Z,92.60
2018-04-19T06:20:56.150Z,92.60
2018-04-19T06:23:22.346Z,92.90
2018-04-19T06:25:49.277Z,92.50
2018-04-19T06:28:15.724Z,92.50
2018-04-19T06:30:42.637Z,92.20
2018-04-19T06:33:08.814Z,91.80
2018-04-19T06:35:35.736Z,91.70
2018-04-19T06:38:01.922Z,91.70
2018-04-19T06:40:28.165Z,92.20
2018-04-19T06:42:54.332Z,92.00
2018-04-19T06:45:20.730Z,91.90
2018-04-19T06:47:47.644Z,91.80
2018-04-19T06:50:14.570Z,91.90
2018-04-19T06:52:40.778Z,91.80
2018-04-19T06:55:06.946Z,91.90
2018-04-19T06:57:33.885Z,92.50
2018-04-19T07:00:00.078Z,92.50
2018-04-19T07:02:26.253Z,92.50
2018-04-19T07:04:52.472Z,92.50
2018-04-19T07:07:18.640Z,92.60
2018-04-19T07:09:45.569Z,91.90
2018-04-19T07:12:11.774Z,91.90
2018-04-19T07:14:37.997Z,92.60
2018-04-19T07:17:04.902Z,92.00
2018-04-19T07:19:31.828Z,91.90
2018-04-19T07:21:58.018Z,91.80
2018-04-19T07:24:24.253Z,91.50
2018-04-19T07:26:50.421Z,91.60
2018-04-19T07:29:16.627Z,91.90
2018-04-19T07:31:42.813Z,91.50
2018-04-19T07:34:09.758Z,92.40
2018-04-19T07:36:35.945Z,92.10
2018-04-19T07:39:02.187Z,91.60
2018-04-19T07:41:28.575Z,92.10
2018-04-19T07:43:55.484Z,91.50
2018-04-19T07:46:21.672Z,91.50
2018-04-19T07:48:47.845Z,92.00
2018-04-19T07:51:14.021Z,91.40
2018-04-19T07:53:40.941Z,91.10
2018-04-19T07:56:07.123Z,91.00
2018-04-19T07:58:33.297Z,92.00
2018-04-19T08:00:59.486Z,91.80
2018-04-19T08:03:25.685Z,91.90
2018-04-19T08:05:52.637Z,91.70
2018-04-19T08:08:18.813Z,91.60
2018-04-19T08:10:45.006Z,92.20
2018-04-19T08:13:11.936Z,91.70
2018-04-19T08:15:38.122Z,91.30
2018-04-19T08:18:04.327Z,91.10
2018-04-19T08:20:31.257Z,91.90
2018-04-19T08:22:57.425Z,91.80
2018-04-19T08:25:24.353Z,91.50
2018-04-19T08:27:50.539Z,91.40
2018-04-19T08:30:16.730Z,92.30
2018-04-19T08:32:43.672Z,91.40
2018-04-19T08:35:10.605Z,91.60
2018-04-19T08:37:36.786Z,91.50
2018-04-19T08:40:02.970Z,92.30
2018-04-19T08:42:29.202Z,92.50
2018-04-19T08:44:55.384Z,92.90
2018-04-19T08:47:21.572Z,92.30
2018-04-19T08:49:47.754Z,92.00
2018-04-19T08:52:13.948Z,92.20
2018-04-19T08:54:40.131Z,92.50
2018-04-19T08:57:06.321Z,92.30
2018-04-19T08:59:33.245Z,91.20
2018-04-19T09:01:59.409Z,91.10
2018-04-19T09:04:26.343Z,91.20
2018-04-19T09:06:52.522Z,91.10
2018-04-19T09:09:18.714Z,91.10
2018-04-19T09:11:45.640Z,90.20
2018-04-19T09:14:11.806Z,90.20
2018-04-19T09:16:38.723Z,91.40
2018-04-19T09:19:04.923Z,91.30
2018-04-19T09:21:31.093Z,90.30
2018-04-19T09:23:57.301Z,90.40
2018-04-19T09:26:23.466Z,90.30
2018-04-19T09:28:49.666Z,90.10
2018-04-19T09:31:15.847Z,90.80
2018-04-19T09:33:42.766Z,91.10
2018-04-19T09:36:08.956Z,91.10
2018-04-19T09:38:35.112Z,90.20
2018-04-19T09:41:01.312Z,90.70
2018-04-19T09:43:28.218Z,89.40
2018-04-19T09:45:54.398Z,89.40
2018-04-19T09:48:20.769Z,90.20
2018-04-19T09:50:46.946Z,90.40
2018-04-19T09:53:13.874Z,88.60
2018-04-19T09:55:40.057Z,88.60
2018-04-19T09:58:07.220Z,86.70
2018-04-19T10:00:33.422Z,86.10
2018-04-19T10:03:00.350Z,83.50
2018-04-19T10:05:27.303Z,84.20
2018-04-19T10:07:54.227Z,82.50
2018-04-19T10:10:20.598Z,82.40
2018-04-19T10:12:47.531Z,82.30
2018-04-19T10:15:13.709Z,82.20
2018-04-19T10:17:39.906Z,82.80
2018-04-19T10:20:06.817Z,80.30
2018-04-19T10:22:33.026Z,80.20
2018-04-19T10:24:59.205Z,79.40
2018-04-19T10:27:25.440Z,80.20
2018-04-19T10:29:51.605Z,81.20
2018-04-19T10:32:17.786Z,79.90
2018-04-19T10:34:43.977Z,78.40
2018-04-19T10:37:10.176Z,80.60
2018-04-19T10:39:36.376Z,77.90
2018-04-19T10:42:02.591Z,74.80
2018-04-19T10:44:28.757Z,75.80
2018-04-19T10:46:54.978Z,76.20
2018-04-19T10:49:21.166Z,75.70
2018-04-19T10:51:48.073Z,78.80
2018-04-19T10:54:14.257Z,78.80
2018-04-19T10:56:40.433Z,78.30
2018-04-19T10:59:06.638Z,77.00
2018-04-19T11:01:32.810Z,77.20
2018-04-19T11:03:59.409Z,77.80
2018-04-19T11:06:25.610Z,76.80
2018-04-19T11:08:52.512Z,77.20
2018-04-19T11:11:18.717Z,77.20
2018-04-19T11:13:44.873Z,76.00
2018-04-19T11:16:11.047Z,75.00
2018-04-19T11:18:37.236Z,73.40
2018-04-19T11:21:03.410Z,74.10
2018-04-19T11:23:29.620Z,73.40
2018-04-19T11:25:55.803Z,74.10
2018-04-19T11:28:21.970Z,73.20
2018-04-19T11:30:48.149Z,72.00
2018-04-19T11:33:15.058Z,73.00
2018-04-19T11:35:41.250Z,73.00
2018-04-19T11:38:07.434Z,72.40
2018-04-19T11:40:33.630Z,73.30
2018-04-19T11:42:59.813Z,74.10
2018-04-19T11:45:25.980Z,72.50
2018-04-19T11:47:52.889Z,73.40
2018-04-19T11:50:19.094Z,73.40
2018-04-19T11:52:45.285Z,73.80
2018-04-19T11:55:12.205Z,73.60
2018-04-19T11:57:38.433Z,73.40
2018-04-19T12:00:04.613Z,75.30
2018-04-19T12:02:30.786Z,75.50
2018-04-19T12:04:56.986Z,76.50
2018-04-19T12:07:23.146Z,74.30
2018-04-19T12:09:49.327Z,75.10
2018-04-19T12:12:16.252Z,74.10
2018-04-19T12:14:42.435Z,74.00
2018-04-19T12:17:08.653Z,72.80
2018-04-19T12:19:35.606Z,71.50
2018-04-19T12:22:01.795Z,71.40
2018-04-19T12:24:28.034Z,71.30
2018-04-19T12:26:54.224Z,73.10
2018-04-19T12:29:20.441Z,72.40
2018-04-19T12:31:46.638Z,72.70
2018-04-19T12:34:12.811Z,72.70
2018-04-19T12:36:38.981Z,73.40
2018-04-19T12:39:05.161Z,72.80
2018-04-19T12:41:31.378Z,70.70
2018-04-19T12:43:57.544Z,72.90
2018-04-19T12:46:23.708Z,70.30
2018-04-19T12:48:49.894Z,73.20
2018-04-19T12:51:17.169Z,70.50
2018-04-19T12:53:43.358Z,70.50
2018-04-19T12:56:09.538Z,70.60
2018-04-19T12:58:35.716Z,71.20
2018-04-19T13:01:01.901Z,70.90
2018-04-19T13:03:28.087Z,70.90
2018-04-19T13:05:54.281Z,69.70
2018-04-19T13:08:20.441Z,70.30
2018-04-19T13:10:46.610Z,71.20
2018-04-19T13:13:13.535Z,68.90
2018-04-19T13:15:39.728Z,68.80
2018-04-19T13:18:05.963Z,68.50
2018-04-19T13:20:32.123Z,66.40
2018-04-19T13:22:58.308Z,66.70
2018-04-19T13:25:24.518Z,68.00
2018-04-19T13:27:51.453Z,65.40
2018-04-19T13:30:18.406Z,65.60
2018-04-19T13:32:45.322Z,67.00
2018-04-19T13:35:11.510Z,66.80
2018-04-19T13:37:38.434Z,65.90
2018-04-19T13:40:04.615Z,65.90
2018-04-19T13:42:30.818Z,65.20
2018-04-19T13:44:57.729Z,64.10
2018-04-19T13:47:23.921Z,64.70
2018-04-19T13:49:50.125Z,65.40
2018-04-19T13:52:17.197Z,65.80
2018-04-19T13:54:44.137Z,63.40
2018-04-19T13:57:11.058Z,63.50
2018-04-19T13:59:37.232Z,63.40
2018-04-19T14:02:03.455Z,63.30
2018-04-19T14:04:29.634Z,65.00
2018-04-19T14:06:55.842Z,65.10
2018-04-19T14:09:22.027Z,62.30
2018-04-19T14:11:48.949Z,60.50
2018-04-19T14:14:15.117Z,60.90
2018-04-19T14:16:42.057Z,64.40
2018-04-19T14:19:08.259Z,63.70
2018-04-19T14:21:34.424Z,61.80
2018-04-19T14:24:00.601Z,62.50
2018-04-19T14:26:26.777Z,61.50
2018-04-19T14:28:52.938Z,64.80
2018-04-19T14:31:19.873Z,62.10
2018-04-19T14:33:46.805Z,63.70
2018-04-19T14:36:12.968Z,63.00
2018-04-19T14:38:39.919Z,62.60
2018-04-19T14:41:06.845Z,64.40
2018-04-19T14:43:33.072Z,64.40
2018-04-19T14:45:59.226Z,62.60
2018-04-19T14:48:26.137Z,62.60
2018-04-19T14:50:52.393Z,62.40
2018-04-19T14:53:18.577Z,63.20
2018-04-19T14:55:44.774Z,62.40
2018-04-19T14:58:11.690Z,63.00
2018-04-19T15:00:37.906Z,63.00
2018-04-19T15:03:04.078Z,61.60
2018-04-19T15:05:30.251Z,62.90
2018-04-19T15:07:56.449Z,62.40
2018-04-19T15:10:23.374Z,63.10
2018-04-19T15:12:49.565Z,63.00
2018-04-19T15:15:15.737Z,62.30
2018-04-19T15:17:41.914Z,60.00
2018-04-19T15:20:08.846Z,60.90
2018-04-19T15:22:35.021Z,60.10
2018-04-19T15:25:01.198Z,61.30
2018-04-19T15:27:27.368Z,63.50
2018-04-19T15:29:54.294Z,63.30
2018-04-19T15:32:21.248Z,60.80
2018-04-19T15:34:47.435Z,61.30
2018-04-19T15:37:13.621Z,62.50
2018-04-19T15:39:40.562Z,62.70
2018-04-19T15:42:07.520Z,63.60
2018-04-19T15:44:34.448Z,62.30
2018-04-19T15:47:00.638Z,62.30
2018-04-19T15:49:26.814Z,62.50
2018-04-19T15:51:52.997Z,63.00
2018-04-19T15:54:19.177Z,63.30
2018-04-19T15:56:45.372Z,63.10
2018-04-19T15:59:11.543Z,63.40
2018-04-19T16:01:37.726Z,63.10
2018-04-19T16:04:03.904Z,62.60
2018-04-19T16:06:30.081Z,63.50
2018-04-19T16:08:56.276Z,62.70
2018-04-19T16:11:22.476Z,64.10
2018-04-19T16:13:48.665Z,63.50
2018-04-19T16:16:15.585Z,63.90
2018-04-19T16:18:41.749Z,63.80
2018-04-19T16:21:08.693Z,63.50
2018-04-19T16:23:35.639Z,64.70
2018-04-19T16:26:02.553Z,64.30
2018-04-19T16:28:28.746Z,64.20
2018-04-19T16:30:54.915Z,64.10
2018-04-19T16:33:21.108Z,65.10
2018-04-19T16:35:47.280Z,64.60
2018-04-19T16:38:13.459Z,64.70
2018-04-19T16:40:40.377Z,66.10
2018-04-19T16:43:06.559Z,66.10
2018-04-19T16:45:32.759Z,65.20
2018-04-19T16:47:59.686Z,65.90
2018-04-19T16:50:25.865Z,65.30
2018-04-19T16:52:52.064Z,65.20
2018-04-19T16:55:18.245Z,65.20
2018-04-19T16:57:44.446Z,66.10
2018-04-19T17:00:11.391Z,65.70
2018-04-19T17:02:38.437Z,66.40
2018-04-19T17:05:04.638Z,65.60
2018-04-19T17:07:30.849Z,66.20
2018-04-19T17:09:57.029Z,66.70
2018-04-19T17:12:23.228Z,66.20
2018-04-19T17:14:49.482Z,66.30
2018-04-19T17:17:15.612Z,66.10
2018-04-19T17:19:41.810Z,66.90
2018-04-19T17:22:07.984Z,67.20
2018-04-19T17:24:34.249Z,67.60
2018-04-19T17:27:01.198Z,68.50
2018-04-19T17:29:28.149Z,68.60
2018-04-19T17:31:55.062Z,68.70
2018-04-19T17:34:21.254Z,68.70
2018-04-19T17:36:47.429Z,68.90
2018-04-19T17:39:13.632Z,69.40
2018-04-19T17:41:39.802Z,69.70
2018-04-19T17:44:05.976Z,70.50
2018-04-19T17:46:32.158Z,70.50
2018-04-19T17:48:58.321Z,70.20
2018-04-19T17:51:25.257Z,71.00
2018-04-19T17:53:51.442Z,70.80
2018-04-19T17:56:17.897Z,70.80
2018-04-19T17:58:44.080Z,71.40
2018-04-19T18:01:11.014Z,72.40
2018-04-19T18:03:37.234Z,72.30
2018-04-19T18:06:04.199Z,73.60
2018-04-19T18:08:30.378Z,73.60
2018-04-19T18:10:56.553Z,74.20
2018-04-19T18:13:22.739Z,74.90
2018-04-19T18:15:48.967Z,75.20
2018-04-19T18:18:15.154Z,76.50
2018-04-19T18:20:42.077Z,78.80
2018-04-19T18:23:08.296Z,79.00
2018-04-19T18:25:34.477Z,79.80
2018-04-19T18:28:00.673Z,80.50
2018-04-19T18:30:26.836Z,80.50
2018-04-19T18:32:53.753Z,83.50
2018-04-19T18:35:19.926Z,82.60
2018-04-19T18:37:46.081Z,84.00
2018-04-19T18:40:12.285Z,84.10
2018-04-19T18:42:38.457Z,84.30
2018-04-19T18:45:04.678Z,84.70
2018-04-19T18:47:30.857Z,84.90
2018-04-19T18:49:58.425Z,84.50
2018-04-19T18:52:24.689Z,84.20
2018-04-19T18:54:51.605Z,87.70
2018-04-19T18:57:18.137Z,87.50
2018-04-19T18:59:44.329Z,87.60
2018-04-19T19:02:11.253Z,87.60
2018-04-19T19:04:37.459Z,87.50
2018-04-19T19:07:03.651Z,88.60
2018-04-19T19:09:29.818Z,89.60
2018-04-19T19:11:55.985Z,90.00
2018-04-19T19:14:22.185Z,90.60
2018-04-19T19:16:48.374Z,89.80
2018-04-19T19:19:26.863Z,89.10
2018-04-19T19:21:53.057Z,89.50
2018-04-19T19:24:19.234Z,90.00
2018-04-19T19:26:45.441Z,90.60
2018-04-19T19:29:11.630Z,90.90
2018-04-19T19:31:37.814Z,90.80
2018-04-19T19:34:03.999Z,90.90
2018-04-19T19:36:30.198Z,92.30
2018-04-19T19:38:57.156Z,93.50
2018-04-19T19:41:24.073Z,93.60
2018-04-19T19:43:50.241Z,93.60
2018-04-19T19:46:17.167Z,93.60
2018-04-19T19:48:43.358Z,93.60
2018-04-19T19:51:09.573Z,94.10
2018-04-19T19:53:35.753Z,94.90
2018-04-19T19:56:01.946Z,95.00
2018-04-19T19:58:28.138Z,94.90
2018-04-19T20:00:54.312Z,94.70
2018-04-19T20:03:20.508Z,94.70
2018-04-19T20:05:47.472Z,94.60
2018-04-19T20:08:14.373Z,94.50
2018-04-19T20:10:40.563Z,94.50
2018-04-19T20:13:07.513Z,93.60
2018-04-19T20:15:34.464Z,93.50
2018-04-19T20:18:00.643Z,93.50
2018-04-19T20:20:26.813Z,93.40
2018-04-19T20:22:53.953Z,93.50
2018-04-19T20:25:20.877Z,93.60
2018-04-19T20:27:47.057Z,93.50
2018-04-19T20:30:13.988Z,94.00
2018-04-19T20:32:40.161Z,93.90
2018-04-19T20:35:06.374Z,93.80
2018-04-19T20:37:33.309Z,94.40
2018-04-19T20:40:00.265Z,94.60
2018-04-19T20:42:27.181Z,95.80
2018-04-19T20:44:53.423Z,95.80
2018-04-19T20:47:19.605Z,95.90
2018-04-19T20:49:45.763Z,95.90
2018-04-19T20:52:11.950Z,94.50
2018-04-19T20:54:38.878Z,95.80
2018-04-19T20:57:05.878Z,95.70
2018-04-19T20:59:32.261Z,96.00
2018-04-19T21:01:58.432Z,95.60
2018-04-19T21:04:24.603Z,95.30
2018-04-19T21:06:50.830Z,95.10
2018-04-19T21:09:17.038Z,95.30
2018-04-19T21:11:43.202Z,95.40
2018-04-19T21:14:09.373Z,95.60
2018-04-19T21:16:36.317Z,95.60
2018-04-19T21:19:02.485Z,95.60
2018-04-19T21:21:28.690Z,95.90
2018-04-19T21:23:55.617Z,95.20
2018-04-19T21:26:21.784Z,95.20
2018-04-19T21:28:48.707Z,95.70
2018-04-19T21:31:14.907Z,95.60
2018-04-19T21:33:41.293Z,96.00
2018-04-19T21:36:08.219Z,96.50
2018-04-19T21:38:34.396Z,96.40
2018-04-19T21:41:00.587Z,96.20
2018-04-19T21:43:26.778Z,96.10
2018-04-19T21:45:53.036Z,96.00
2018-04-19T21:48:19.222Z,96.10
2018-04-19T21:50:46.128Z,96.10
2018-04-19T21:53:12.314Z,96.00
2018-04-19T21:55:38.485Z,96.00
2018-04-19T21:58:04.686Z,96.00
2018-04-19T22:00:31.842Z,95.80
2018-04-19T22:02:58.034Z,95.60
2018-04-19T22:05:24.212Z,95.20
2018-04-19T22:07:50.390Z,95.30
2018-04-19T22:10:17.357Z,96.20
2018-04-19T22:12:44.277Z,96.00
2018-04-19T22:15:10.466Z,96.00
2018-04-19T22:17:36.645Z,96.30
2018-04-19T22:20:02.822Z,96.40
2018-04-19T22:22:29.031Z,96.50
2018-04-19T22:24:55.957Z,96.00
2018-04-19T22:27:22.126Z,96.00
2018-04-19T22:29:49.041Z,96.20
2018-04-19T22:32:15.229Z,96.50
2018-04-19T22:34:41.434Z,96.40
2018-04-19T22:37:08.348Z,96.90
2018-04-19T22:39:34.536Z,96.80
2018-04-19T22:42:00.721Z,96.80
2018-04-19T22:44:26.911Z,97.20
2018-04-19T22:46:53.119Z,97.20
2018-04-19T22:49:20.021Z,96.90
2018-04-19T22:51:46.213Z,96.90
2018-04-19T22:54:12.397Z,96.70
2018-04-19T22:56:38.587Z,96.50
2018-04-19T22:59:04.825Z,96.30
2018-04-19T23:01:31.542Z,96.20
2018-04-19T23:03:58.457Z,96.10
2018-04-19T23:06:24.650Z,96.10
2018-04-19T23:08:50.846Z,96.30
2018-04-19T23:11:17.802Z,95.90
2018-04-19T23:13:44.704Z,96.10
2018-04-19T23:16:11.655Z,96.10
2018-04-19T23:18:37.841Z,96.00
2018-04-19T23:21:04.751Z,96.10
2018-04-19T23:23:30.958Z,96.10
2018-04-19T23:25:57.133Z,96.10
2018-04-19T23:28:23.307Z,96.10
2018-04-19T23:30:49.502Z,96.00
2018-04-19T23:33:16.428Z,96.20
2018-04-19T23:35:42.652Z,96.10
2018-04-19T23:38:08.824Z,96.00
2018-04-19T23:40:35.746Z,95.80
2018-04-19T23:43:01.940Z,95.80
2018-04-19T23:45:28.116Z,95.90
2018-04-19T23:47:54.337Z,95.90
2018-04-19T23:50:20.499Z,96.10
2018-04-19T23:52:46.673Z,96.40
2018-04-19T23:55:12.848Z,96.30
2018-04-19T23:57:39.033Z,96.20
